Time;durP1;ratioP1;P1;durP2;ratioP2;P2;SDS_P1;SDS_P2;PMS_P1;PMS_P2;Temp;Humidity;BMP_temperature;BMP_pressure;BME280_temperature;BME280_humidity;BME280_pressure;Samples;Min_cycle;Max_cycle;Signal;HPM_P1;HPM_P2
2021/12/15 00:01:43;;;;;;;7.70;5.88;;;20.90;58.30;;;;;;4996733;28;20499;-59
2021/12/15 00:04:09;;;;;;;8.20;5.93;;;20.90;58.20;;;;;;4997265;28;20046;-58
2021/12/15 00:06:35;;;;;;;6.80;5.60;;;20.90;58.20;;;;;;4996944;28;20053;-59
2021/12/15 00:09:05;;;;;;;6.45;5.78;;;20.90;58.20;;;;;;4996521;28;20456;-59
2021/12/15 00:11:35;;;;;;;8.60;6.10;;;20.90;58.10;;;;;;4996434;28;20116;-59
2021/12/15 00:14:09;;;;;;;7.18;5.60;;;20.80;58.10;;;;;;4995642;28;20415;-59
2021/12/15 00:16:36;;;;;;;6.22;5.47;;;20.80;58.00;;;;;;4996493;28;20113;-59
2021/12/15 00:19:02;;;;;;;6.80;5.63;;;20.80;58.10;;;;;;4996671;28;20046;-59
2021/12/15 00:21:28;;;;;;;6.60;5.90;;;20.80;58.00;;;;;;4995081;28;20050;-59
2021/12/15 00:23:54;;;;;;;6.75;6.13;;;20.80;58.00;;;;;;4996590;28;20064;-58
2021/12/15 00:26:20;;;;;;;6.82;6.13;;;20.80;58.00;;;;;;4996438;28;20417;-59
2021/12/15 00:28:46;;;;;;;7.03;5.68;;;20.80;58.00;;;;;;4996895;28;20102;-59
2021/12/15 00:31:12;;;;;;;6.80;5.38;;;20.80;57.90;;;;;;4996134;28;20385;-59
2021/12/15 00:33:40;;;;;;;6.03;5.43;;;20.80;57.90;;;;;;4996392;28;20042;-59
2021/12/15 00:36:06;;;;;;;6.20;5.60;;;20.80;57.90;;;;;;4996308;28;20090;-59
2021/12/15 00:38:33;;;;;;;7.32;5.70;;;20.80;57.90;;;;;;4996348;28;20034;-59
2021/12/15 00:40:59;;;;;;;6.70;5.65;;;20.80;57.90;;;;;;4996204;28;20054;-59
2021/12/15 00:43:25;;;;;;;6.03;5.38;;;20.80;57.90;;;;;;4996683;28;20084;-59
2021/12/15 00:45:51;;;;;;;6.13;5.53;;;20.80;57.90;;;;;;4996652;28;20133;-58
2021/12/15 00:48:17;;;;;;;6.60;5.25;;;20.80;57.80;;;;;;4993131;28;20129;-59
2021/12/15 00:50:45;;;;;;;6.63;5.45;;;20.80;57.80;;;;;;4996111;28;20478;-59
2021/12/15 00:53:12;;;;;;;6.72;5.80;;;20.80;57.80;;;;;;4996582;28;20034;-59
2021/12/15 00:55:38;;;;;;;5.95;5.18;;;20.80;57.70;;;;;;4994988;28;20050;-58
2021/12/15 00:58:05;;;;;;;5.80;5.22;;;20.80;57.80;;;;;;4996505;28;20038;-59
2021/12/15 01:00:35;;;;;;;6.82;5.82;;;20.80;57.80;;;;;;4994699;28;20050;-59
2021/12/15 01:03:01;;;;;;;6.70;5.32;;;20.80;57.80;;;;;;4996016;28;20038;-59
2021/12/15 01:05:31;;;;;;;5.95;5.35;;;20.80;57.70;;;;;;4995768;28;20050;-59
2021/12/15 01:07:59;;;;;;;5.88;5.32;;;20.70;57.70;;;;;;4994947;28;20038;-59
2021/12/15 01:10:32;;;;;;;6.25;5.65;;;20.70;57.70;;;;;;4994888;28;20046;-59
2021/12/15 01:21:08;;;;;;;5.55;5.05;;;20.70;57.70;;;;;;4995761;28;20053;-59
2021/12/15 01:23:34;;;;;;;6.13;5.53;;;20.70;57.60;;;;;;4995639;28;20046;-59
2021/12/15 01:26:09;;;;;;;5.50;4.97;;;20.70;57.70;;;;;;4995423;28;20042;-59
2021/12/15 01:28:35;;;;;;;6.15;4.93;;;20.70;57.70;;;;;;4995419;28;20039;-59
2021/12/15 01:31:04;;;;;;;5.43;4.93;;;20.70;57.80;;;;;;4995753;28;20042;-59
2021/12/15 01:33:30;;;;;;;5.47;4.97;;;20.70;57.90;;;;;;4995314;28;20453;-59
2021/12/15 01:35:58;;;;;;;5.13;4.63;;;20.70;58.00;;;;;;4995083;28;20050;-59
2021/12/15 01:38:28;;;;;;;5.80;5.00;;;20.70;58.10;;;;;;4995017;28;20504;-59
2021/12/15 01:40:54;;;;;;;5.18;4.68;;;20.70;58.10;;;;;;4995228;28;20034;-59
2021/12/15 01:43:32;;;;;;;4.97;4.55;;;20.70;58.10;;;;;;4993938;28;20034;-59
2021/12/15 01:48:59;;;;;;;5.40;4.75;;;20.60;58.20;;;;;;4995058;28;20116;-59
2021/12/15 01:51:24;;;;;;;5.25;4.75;;;20.70;58.20;;;;;;4995545;28;20121;-59
2021/12/15 01:53:50;;;;;;;5.38;4.88;;;20.60;58.20;;;;;;4995023;28;20460;-59
2021/12/15 01:56:16;;;;;;;5.32;4.82;;;20.60;58.20;;;;;;4994949;28;20046;-59
2021/12/15 01:58:42;;;;;;;6.15;5.32;;;20.60;58.20;;;;;;4994892;28;20121;-59
2021/12/15 02:01:09;;;;;;;5.68;5.07;;;20.60;58.30;;;;;;4994846;28;20042;-59
2021/12/15 02:03:36;;;;;;;5.60;5.07;;;20.60;58.30;;;;;;4994822;28;20050;-59
2021/12/15 02:06:04;;;;;;;6.18;5.57;;;20.60;58.20;;;;;;4994710;28;20042;-59
2021/12/15 02:08:29;;;;;;;5.03;4.63;;;20.60;58.20;;;;;;4994572;28;20057;-60
2021/12/15 02:10:55;;;;;;;5.93;5.20;;;20.60;58.20;;;;;;4994610;28;20049;-60
2021/12/15 02:13:21;;;;;;;5.70;5.20;;;20.60;58.20;;;;;;4994678;28;20458;-59
2021/12/15 02:15:52;;;;;;;5.60;5.10;;;20.60;58.20;;;;;;4994619;28;20049;-59
2021/12/15 02:18:32;;;;;;;6.25;5.65;;;20.60;58.30;;;;;;4995027;28;20362;-59
2021/12/15 02:21:10;;;;;;;5.55;5.05;;;20.60;58.30;;;;;;4994304;28;20462;-59
2021/12/15 02:23:42;;;;;;;6.22;5.22;;;20.60;58.20;;;;;;4995020;28;20124;-59
2021/12/15 02:26:14;;;;;;;5.28;4.80;;;20.60;58.60;;;;;;4994873;28;20467;-59
2021/12/15 02:28:41;;;;;;;6.45;5.03;;;20.60;58.20;;;;;;4994387;28;20045;-59
2021/12/15 02:31:17;;;;;;;5.60;5.10;;;20.60;58.20;;;;;;4994054;28;20402;-59
2021/12/15 02:34:00;;;;;;;6.55;5.47;;;20.60;58.20;;;;;;4994364;28;20049;-59
2021/12/15 02:39:11;;;;;;;6.10;5.50;;;20.60;58.20;;;;;;4994037;28;20049;-59
2021/12/15 02:41:39;;;;;;;6.50;5.90;;;20.50;58.20;;;;;;4994705;28;20042;-59
2021/12/15 02:44:09;;;;;;;5.75;5.18;;;20.50;58.10;;;;;;4994087;28;20486;-59
2021/12/15 02:46:36;;;;;;;6.17;5.67;;;20.50;58.10;;;;;;4994443;28;20042;-59
2021/12/15 02:49:04;;;;;;;6.18;5.55;;;20.60;58.20;;;;;;4990651;28;20038;-59
2021/12/15 02:51:30;;;;;;;6.25;5.70;;;20.50;58.10;;;;;;4994041;28;20057;-60
2021/12/15 02:53:58;;;;;;;6.10;5.40;;;20.50;58.10;;;;;;4994334;28;20038;-59
2021/12/15 02:56:23;;;;;;;5.72;5.18;;;20.50;58.10;;;;;;4994088;28;20045;-59
2021/12/15 02:58:51;;;;;;;5.68;5.13;;;20.50;58.10;;;;;;4994459;28;20034;-59
2021/12/15 03:01:29;;;;;;;5.82;5.32;;;20.50;58.80;;;;;;4993840;28;20065;-59
2021/12/15 03:06:52;;;;;;;6.03;5.53;;;20.50;58.10;;;;;;4994685;28;20081;-59
2021/12/15 03:15:18;;;;;;;5.85;5.35;;;20.50;58.00;;;;;;4994476;28;20045;-59
2021/12/15 03:17:38;;;;;;;6.45;5.60;;;20.50;58.10;;;;;;4993879;28;20129;-59
2021/12/15 03:20:08;;;;;;;6.55;5.95;;;20.50;58.10;;;;;;4993708;28;20046;-59
2021/12/15 03:22:34;;;;;;;6.32;5.55;;;20.50;58.00;;;;;;4994373;28;20066;-59
2021/12/15 03:24:59;;;;;;;6.47;5.88;;;20.50;58.80;;;;;;4993858;28;20413;-59
2021/12/15 03:33:15;;;;;;;6.63;6.03;;;20.50;58.00;;;;;;4993549;28;20414;-59
2021/12/15 03:33:29;;;;;;;6.53;5.40;;;20.50;58.00;;;;;;4993810;28;20058;-59
2021/12/15 03:36:03;;;;;;;12.82;5.90;;;20.50;58.00;;;;;;4998084;28;20050;-59
2021/12/15 03:38:30;;;;;;;7.35;5.88;;;20.40;57.90;;;;;;4998068;28;20165;-59
2021/12/15 03:40:56;;;;;;;7.30;6.60;;;20.40;57.90;;;;;;4996262;28;20101;-59
2021/12/15 03:43:22;;;;;;;7.57;5.68;;;20.40;57.90;;;;;;4997872;28;20049;-59
2021/12/15 03:45:55;;;;;;;7.90;5.90;;;20.40;57.90;;;;;;4997425;28;20042;-59
2021/12/15 03:48:24;;;;;;;8.57;6.10;;;20.40;57.90;;;;;;4997383;28;20088;-59
2021/12/15 03:50:52;;;;;;;8.40;6.10;;;20.40;57.90;;;;;;4997254;28;20132;-59
2021/12/15 03:53:18;;;;;;;7.50;6.57;;;20.40;58.60;;;;;;4997230;28;20042;-59
2021/12/15 03:55:45;;;;;;;6.28;5.68;;;20.40;57.80;;;;;;4997695;28;20042;-59
2021/12/15 03:58:13;;;;;;;8.05;6.47;;;20.40;57.80;;;;;;4997216;28;20038;-59
2021/12/15 04:00:46;;;;;;;7.95;6.60;;;20.40;57.90;;;;;;4997070;28;20466;-59
2021/12/15 04:03:23;;;;;;;12.20;6.78;;;20.40;57.80;;;;;;4997702;28;20046;-59
2021/12/15 04:05:48;;;;;;;8.70;6.80;;;20.40;57.80;;;;;;4997816;28;20045;-59
2021/12/15 04:08:14;;;;;;;11.63;6.47;;;20.40;57.80;;;;;;4996955;28;20378;-59
2021/12/15 04:10:40;;;;;;;9.15;6.43;;;20.40;57.80;;;;;;4995647;28;20425;-59
2021/12/15 04:13:06;;;;;;;8.00;7.18;;;20.40;57.80;;;;;;4996845;28;20077;-59
2021/12/15 04:15:42;;;;;;;11.40;7.00;;;20.40;57.70;;;;;;4996749;28;20464;-59
2021/12/15 04:18:09;;;;;;;9.43;6.65;;;20.40;57.70;;;;;;4996790;28;20050;-59
2021/12/15 04:20:36;;;;;;;8.07;6.88;;;20.40;57.80;;;;;;4996369;28;20107;-59
2021/12/15 04:23:04;;;;;;;8.13;6.82;;;20.40;57.70;;;;;;4996630;28;20046;-59
2021/12/15 04:25:33;;;;;;;11.07;7.72;;;20.40;57.70;;;;;;4996268;28;20512;-59
2021/12/15 04:28:03;;;;;;;7.32;6.63;;;20.40;57.70;;;;;;4995290;28;20051;-59
2021/12/15 04:30:31;;;;;;;10.20;7.47;;;20.40;57.70;;;;;;4995629;28;20118;-58
2021/12/15 04:33:03;;;;;;;8.73;7.72;;;20.40;57.70;;;;;;4996023;28;20613;-59
2021/12/15 04:35:29;;;;;;;8.73;7.85;;;20.40;57.70;;;;;;4996616;28;20093;-59
2021/12/15 04:37:55;;;;;;;8.10;7.15;;;20.40;57.60;;;;;;4996449;28;20393;-59
2021/12/15 04:40:22;;;;;;;8.18;7.25;;;20.40;57.60;;;;;;4995619;28;20034;-59
2021/12/15 04:42:49;;;;;;;8.38;7.57;;;20.40;57.60;;;;;;4996330;28;20049;-59
2021/12/15 04:45:18;;;;;;;8.90;7.20;;;20.30;57.50;;;;;;4995089;28;20044;-58
2021/12/15 04:47:44;;;;;;;9.18;8.13;;;20.40;57.60;;;;;;4995900;28;20488;-59
2021/12/15 04:50:11;;;;;;;9.65;8.35;;;20.30;57.50;;;;;;4996659;28;20061;-59
2021/12/15 04:52:37;;;;;;;8.73;7.82;;;20.30;57.50;;;;;;4996120;28;20462;-59
2021/12/15 04:55:06;;;;;;;10.57;8.73;;;20.30;57.50;;;;;;4996373;28;20104;-59
2021/12/15 04:57:32;;;;;;;11.00;8.75;;;20.30;57.40;;;;;;4996519;28;20129;-59
2021/12/15 04:59:58;;;;;;;9.75;8.15;;;20.30;57.40;;;;;;4996036;28;20039;-59
2021/12/15 05:02:24;;;;;;;10.18;8.65;;;20.30;57.40;;;;;;4995804;28;20121;-59
2021/12/15 05:04:51;;;;;;;10.10;8.50;;;20.30;57.40;;;;;;4995909;28;20488;-59
2021/12/15 05:07:18;;;;;;;9.23;8.32;;;20.30;57.40;;;;;;4995819;28;20034;-59
2021/12/15 05:09:49;;;;;;;9.35;8.45;;;20.30;57.40;;;;;;4995588;28;20420;-59
2021/12/15 05:12:14;;;;;;;11.00;9.43;;;20.30;57.40;;;;;;4995871;28;20042;-59
2021/12/15 05:14:40;;;;;;;10.05;9.00;;;20.30;57.30;;;;;;4994502;28;20113;-59
2021/12/15 05:17:06;;;;;;;10.43;9.38;;;20.30;57.30;;;;;;4995706;28;20043;-59
2021/12/15 05:19:33;;;;;;;10.48;9.48;;;20.30;57.40;;;;;;4978538;28;20230;-59
2021/12/15 05:21:59;;;;;;;10.80;9.65;;;20.30;57.30;;;;;;4996770;28;20050;-59
2021/12/15 05:26:58;;;;;;;11.00;9.88;;;20.30;57.20;;;;;;4995556;28;20478;-59
2021/12/15 05:29:24;;;;;;;9.52;8.68;;;20.20;57.20;;;;;;4995959;28;20090;-59
2021/12/15 05:31:49;;;;;;;10.50;9.50;;;20.30;57.30;;;;;;4995856;28;20046;-59
2021/12/15 05:34:15;;;;;;;10.13;9.07;;;20.30;57.30;;;;;;4995615;28;20121;-59
2021/12/15 05:36:41;;;;;;;10.35;9.35;;;20.20;57.20;;;;;;4995405;28;20421;-59
2021/12/15 05:39:07;;;;;;;11.18;10.07;;;20.20;57.90;;;;;;4995290;28;20042;-59
2021/12/15 05:41:36;;;;;;;10.27;9.20;;;20.30;57.20;;;;;;4995256;28;20042;-59
2021/12/15 05:44:04;;;;;;;10.65;9.55;;;20.20;57.20;;;;;;4993628;28;20050;-59
2021/12/15 05:46:30;;;;;;;11.20;9.73;;;20.20;57.20;;;;;;4995855;28;20056;-59
2021/12/15 05:48:56;;;;;;;10.98;9.85;;;20.20;57.10;;;;;;4995036;28;20545;-59
2021/12/15 05:51:21;;;;;;;11.30;9.57;;;20.20;57.10;;;;;;4995069;28;20049;-59
2021/12/15 05:53:47;;;;;;;11.95;10.68;;;20.20;57.10;;;;;;4995252;28;20034;-59
2021/12/15 05:56:13;;;;;;;12.07;10.20;;;20.20;57.10;;;;;;4994702;28;20188;-59
2021/12/15 05:58:39;;;;;;;11.43;10.32;;;20.20;57.00;;;;;;4994600;28;20444;-59
2021/12/15 06:01:07;;;;;;;11.30;10.20;;;20.20;57.00;;;;;;4995416;28;20140;-59
2021/12/15 06:03:33;;;;;;;11.20;10.00;;;20.20;57.00;;;;;;4994038;28;20049;-59
2021/12/15 06:05:59;;;;;;;11.27;10.18;;;20.20;57.10;;;;;;4994997;28;20042;-59
2021/12/15 06:08:25;;;;;;;12.55;11.23;;;20.20;57.00;;;;;;4994682;28;20533;-59
2021/12/15 06:10:51;;;;;;;11.32;10.18;;;20.20;57.00;;;;;;4994729;28;20049;-59
2021/12/15 06:13:17;;;;;;;12.32;11.07;;;20.20;57.00;;;;;;4977708;28;20045;-59
2021/12/15 06:15:44;;;;;;;11.70;10.50;;;20.20;57.00;;;;;;4995109;28;20038;-59
2021/12/15 06:18:14;;;;;;;11.38;10.27;;;20.20;57.00;;;;;;4994627;28;20140;-59
2021/12/15 06:20:40;;;;;;;13.90;10.52;;;20.20;57.00;;;;;;4994534;28;20053;-59
2021/12/15 06:23:11;;;;;;;11.82;10.63;;;20.20;57.00;;;;;;4994527;28;20081;-59
2021/12/15 06:25:39;;;;;;;11.20;9.93;;;20.20;57.00;;;;;;4994919;28;20068;-59
2021/12/15 06:28:05;;;;;;;11.18;9.80;;;20.10;57.70;;;;;;4994326;28;20096;-59
2021/12/15 06:30:32;;;;;;;11.50;10.23;;;20.20;57.00;;;;;;4994397;28;20046;-60
2021/12/15 06:32:57;;;;;;;11.48;10.30;;;20.20;57.00;;;;;;4994419;28;20042;-60
2021/12/15 06:35:23;;;;;;;10.43;9.43;;;20.20;57.00;;;;;;4994388;28;20084;-60
2021/12/15 06:37:49;;;;;;;10.25;9.35;;;20.20;57.00;;;;;;4994283;28;20042;-60
2021/12/15 06:40:15;;;;;;;10.05;9.05;;;20.20;57.10;;;;;;4993461;28;20577;-60
2021/12/15 06:42:42;;;;;;;11.15;9.98;;;20.20;57.20;;;;;;4994286;28;20050;-59
2021/12/15 06:45:16;;;;;;;9.90;8.63;;;20.20;57.30;;;;;;4993332;28;20370;-60
2021/12/15 06:58:52;;;;;;;9.38;8.48;;;20.20;57.70;;;;;;4993779;28;20548;-59
2021/12/15 07:01:18;;;;;;;9.02;8.20;;;20.20;57.80;;;;;;4992741;28;20129;-59
2021/12/15 07:03:44;;;;;;;9.40;8.48;;;20.30;58.00;;;;;;4994648;28;20065;-60
2021/12/15 07:06:10;;;;;;;10.23;8.70;;;20.30;58.10;;;;;;4994047;28;20326;-62
2021/12/15 07:08:36;;;;;;;8.95;8.07;;;20.30;58.20;;;;;;4993501;28;20042;-58
2021/12/15 07:11:04;;;;;;;9.00;8.10;;;20.30;58.40;;;;;;4998131;28;20104;-60
2021/12/15 07:13:30;;;;;;;10.77;9.15;;;20.30;58.30;;;;;;4998017;28;20046;-60
2021/12/15 07:16:00;;;;;;;9.88;8.88;;;20.40;58.40;;;;;;4996938;28;20076;-59
2021/12/15 07:18:45;;;;;;;9.20;8.30;;;20.30;58.50;;;;;;4997896;28;20125;-59
2021/12/15 07:21:21;;;;;;;8.82;7.93;;;20.40;58.60;;;;;;4990487;28;20054;-59
2021/12/15 07:23:48;;;;;;;9.77;8.18;;;20.40;58.60;;;;;;4997811;28;20038;-59
2021/12/15 07:26:14;;;;;;;9.50;8.60;;;20.40;58.60;;;;;;4997638;28;20050;-60
2021/12/15 07:28:40;;;;;;;11.05;8.63;;;20.30;58.60;;;;;;4997700;28;20129;-60
2021/12/15 07:31:07;;;;;;;9.60;8.00;;;20.40;58.60;;;;;;4997717;28;20050;-60
2021/12/15 07:33:33;;;;;;;10.23;8.90;;;20.40;58.60;;;;;;4996614;28;20042;-59
2021/12/15 07:35:59;;;;;;;10.93;8.55;;;20.40;58.50;;;;;;4997583;28;20034;-61
2021/12/15 07:38:25;;;;;;;9.77;8.77;;;20.40;58.60;;;;;;4997489;28;20046;-60
2021/12/15 07:40:51;;;;;;;10.45;9.13;;;20.40;59.30;;;;;;4977557;28;20046;-60
2021/12/15 07:43:24;;;;;;;11.77;9.20;;;20.40;58.50;;;;;;4977927;28;20506;-61
2021/12/15 07:46:00;;;;;;;11.93;8.82;;;20.40;58.60;;;;;;4984608;28;20042;-63
2021/12/15 07:48:30;;;;;;;11.77;8.85;;;20.40;58.70;;;;;;4996548;28;20042;-50
2021/12/15 07:50:58;;;;;;;9.45;7.95;;;20.40;58.60;;;;;;4997225;28;20117;-61
2021/12/15 07:53:24;;;;;;;30.42;11.93;;;20.40;58.80;;;;;;4997520;28;20042;-61
2021/12/15 07:55:52;;;;;;;37.20;14.20;;;20.40;58.90;;;;;;4997651;28;20350;-61
2021/12/15 07:58:18;;;;;;;38.05;14.57;;;20.50;58.90;;;;;;4996849;28;20473;-61
2021/12/15 08:00:45;;;;;;;49.03;15.88;;;20.40;58.80;;;;;;4997085;28;20050;-59
2021/12/15 08:03:13;;;;;;;83.70;18.10;;;20.40;58.70;;;;;;4997054;28;20533;-61
2021/12/15 08:05:40;;;;;;;192.50;30.35;;;20.40;58.70;;;;;;4997096;28;20070;-61
2021/12/15 08:08:05;;;;;;;385.85;52.40;;;20.40;58.70;;;;;;4996970;28;20041;-61
2021/12/15 08:10:32;;;;;;;267.95;39.45;;;20.50;58.80;;;;;;4997511;28;20042;-61
2021/12/15 08:12:57;;;;;;;203.27;33.25;;;20.50;58.70;;;;;;4996882;28;20414;-61
2021/12/15 08:15:23;;;;;;;214.38;34.10;;;20.50;58.70;;;;;;4996822;28;20072;-61
2021/12/15 08:17:51;;;;;;;173.05;30.85;;;20.50;58.60;;;;;;4996523;28;20477;-61
2021/12/15 08:20:20;;;;;;;154.80;28.75;;;20.40;58.40;;;;;;4996387;28;20054;-61
2021/12/15 08:22:46;;;;;;;151.93;30.23;;;20.50;58.40;;;;;;4997215;28;20053;-61
2021/12/15 08:25:14;;;;;;;131.85;27.13;;;20.50;58.30;;;;;;4996646;28;20470;-62
2021/12/15 08:27:40;;;;;;;128.20;26.05;;;20.50;58.10;;;;;;4991868;28;20110;-61
2021/12/15 08:30:11;;;;;;;121.53;26.30;;;20.50;58.10;;;;;;4984708;28;20058;-70
2021/12/15 08:32:38;;;;;;;106.90;24.65;;;20.50;58.10;;;;;;4975372;28;20090;-63
2021/12/15 08:35:05;;;;;;;96.65;24.13;;;20.50;57.90;;;;;;4996538;28;20493;-63
2021/12/15 08:37:30;;;;;;;100.88;23.40;;;20.50;57.90;;;;;;4996488;28;20034;-63
2021/12/15 08:39:56;;;;;;;87.10;22.02;;;20.50;57.80;;;;;;4996443;28;20049;-63
2021/12/15 08:42:22;;;;;;;82.63;20.77;;;20.50;57.70;;;;;;4996379;28;20085;-63
2021/12/15 08:44:47;;;;;;;74.20;21.73;;;20.40;57.60;;;;;;4995672;28;20049;-63
2021/12/15 08:47:13;;;;;;;69.95;20.85;;;20.50;57.60;;;;;;4996334;28;20053;-63
2021/12/15 08:49:39;;;;;;;72.13;22.05;;;20.40;57.40;;;;;;4996235;28;20080;-61
2021/12/15 08:52:07;;;;;;;115.53;28.52;;;20.50;57.00;;;;;;4982002;28;20041;-61
2021/12/15 08:54:33;;;;;;;83.97;23.33;;;20.50;56.80;;;;;;4976698;28;20553;-62
2021/12/15 08:56:58;;;;;;;77.03;23.23;;;20.40;56.80;;;;;;4981109;28;20140;-62
2021/12/15 08:59:24;;;;;;;79.85;22.15;;;20.40;56.90;;;;;;4972047;28;20070;-62
2021/12/15 09:01:52;;;;;;;80.43;21.33;;;20.40;56.90;;;;;;4990029;28;20042;-62
2021/12/15 09:04:17;;;;;;;79.68;21.90;;;20.50;57.00;;;;;;4990849;28;20125;-62
2021/12/15 09:06:45;;;;;;;72.13;19.38;;;20.40;57.00;;;;;;4995961;28;20084;-62
2021/12/15 09:09:13;;;;;;;74.28;20.77;;;20.50;57.00;;;;;;4994665;28;20045;-61
2021/12/15 09:11:40;;;;;;;61.53;17.77;;;20.50;57.00;;;;;;4995922;28;20113;-62
2021/12/15 09:14:07;;;;;;;64.43;19.00;;;20.40;57.00;;;;;;4995871;28;20043;-62
2021/12/15 09:16:33;;;;;;;53.97;17.98;;;20.50;57.00;;;;;;4996544;28;20038;-61
2021/12/15 09:19:00;;;;;;;62.00;17.75;;;20.50;57.00;;;;;;4996240;28;20042;-63
2021/12/15 09:21:29;;;;;;;54.90;18.63;;;20.50;57.00;;;;;;4996082;28;20094;-61
2021/12/15 09:23:56;;;;;;;46.55;17.70;;;20.40;57.00;;;;;;4995644;28;20124;-62
2021/12/15 09:26:22;;;;;;;56.70;17.25;;;20.50;57.10;;;;;;4995502;28;20488;-62
2021/12/15 09:28:49;;;;;;;42.72;16.13;;;20.50;57.10;;;;;;4995466;28;20125;-62
2021/12/15 09:31:16;;;;;;;43.83;16.27;;;20.50;57.10;;;;;;4991839;28;20050;-62
2021/12/15 09:33:44;;;;;;;36.10;15.32;;;20.50;57.10;;;;;;4995511;28;20121;-64
2021/12/15 09:36:12;;;;;;;45.20;15.93;;;20.50;57.00;;;;;;4995525;28;20152;-62
2021/12/15 09:38:38;;;;;;;38.50;16.20;;;20.50;57.10;;;;;;4989067;28;20500;-68
2021/12/15 09:41:06;;;;;;;36.05;15.35;;;20.50;57.10;;;;;;4995361;28;20057;-62
2021/12/15 09:43:32;;;;;;;33.45;15.35;;;20.50;57.10;;;;;;4995851;28;20141;-62
2021/12/15 09:46:12;;;;;;;32.42;14.80;;;20.50;57.80;;;;;;4995765;28;20038;-62
2021/12/15 10:04:57;;;;;;;35.95;14.73;;;20.40;56.90;;;;;;4975951;28;20046;-62
2021/12/15 10:18:26;;;;;;;29.80;13.48;;;20.40;56.80;;;;;;4976098;28;20058;-62
2021/12/15 10:20:52;;;;;;;26.00;13.50;;;20.40;56.70;;;;;;4974500;28;20063;-62
2021/12/15 10:23:24;;;;;;;26.83;13.63;;;20.40;56.70;;;;;;4975144;28;20038;-62
2021/12/15 10:25:53;;;;;;;21.17;13.57;;;20.40;56.70;;;;;;4975085;28;20046;-62
2021/12/15 10:28:28;;;;;;;24.58;12.85;;;20.40;56.60;;;;;;4974995;28;20039;-62
2021/12/15 10:31:02;;;;;;;23.30;12.75;;;20.50;56.60;;;;;;4975113;28;20043;-62
2021/12/15 10:33:38;;;;;;;20.33;13.07;;;20.40;56.40;;;;;;4975113;28;20042;-62
2021/12/15 10:36:26;;;;;;;19.73;12.93;;;20.40;56.40;;;;;;4975020;28;20130;-62
2021/12/15 10:38:59;;;;;;;22.73;12.10;;;20.40;56.30;;;;;;4975104;28;20037;-62
2021/12/15 10:41:27;;;;;;;20.33;12.13;;;20.40;56.40;;;;;;4975561;28;20054;-62
2021/12/15 10:43:59;;;;;;;22.08;12.68;;;20.40;56.30;;;;;;4971505;28;20043;-62
2021/12/15 10:46:28;;;;;;;18.17;12.18;;;20.40;56.30;;;;;;4974888;28;20061;-62
2021/12/15 10:49:07;;;;;;;18.95;12.50;;;20.40;56.20;;;;;;4974747;28;20042;-62
2021/12/15 10:51:58;;;;;;;19.58;12.40;;;20.40;56.20;;;;;;4974910;28;20074;-62
2021/12/15 10:54:25;;;;;;;15.55;11.57;;;20.40;56.20;;;;;;4973761;28;20035;-62
2021/12/15 10:57:03;;;;;;;17.17;11.73;;;20.40;56.30;;;;;;4974186;28;20046;-62
2021/12/15 10:59:33;;;;;;;17.35;10.98;;;20.40;56.10;;;;;;4974419;28;20390;-62
2021/12/15 11:02:08;;;;;;;16.30;11.27;;;20.40;56.10;;;;;;4975187;28;20042;-62
2021/12/15 11:04:46;;;;;;;14.88;11.52;;;20.40;56.10;;;;;;4974382;28;20105;-62
2021/12/15 11:07:26;;;;;;;14.50;11.25;;;20.40;56.10;;;;;;4974662;28;20122;-62
2021/12/15 11:09:57;;;;;;;17.45;10.65;;;20.40;56.10;;;;;;4975131;28;20403;-62
2021/12/15 11:12:46;;;;;;;14.13;11.15;;;20.40;56.10;;;;;;4973252;28;20046;-62
2021/12/15 11:15:18;;;;;;;14.90;11.43;;;20.40;56.00;;;;;;4974964;28;20121;-62
2021/12/15 11:18:05;;;;;;;12.23;10.05;;;20.40;56.10;;;;;;4974642;28;20041;-62
2021/12/15 11:20:34;;;;;;;15.43;10.93;;;20.40;56.00;;;;;;4974338;28;20059;-62
2021/12/15 11:23:08;;;;;;;14.68;10.48;;;20.40;56.00;;;;;;4974587;28;20377;-62
2021/12/15 11:25:41;;;;;;;13.88;9.50;;;20.40;56.00;;;;;;4974421;28;20039;-62
2021/12/15 11:28:09;;;;;;;13.50;10.63;;;20.40;56.00;;;;;;4973718;28;20069;-62
2021/12/15 11:30:37;;;;;;;14.00;9.27;;;20.40;56.00;;;;;;4974430;28;20109;-62
2021/12/15 11:33:08;;;;;;;12.73;10.18;;;20.40;55.90;;;;;;4974944;28;20114;-62
2021/12/15 11:35:39;;;;;;;12.98;9.88;;;20.50;56.00;;;;;;4981358;28;20136;-62
2021/12/15 11:38:13;;;;;;;12.32;10.18;;;20.40;56.60;;;;;;4991067;28;20117;-62
2021/12/15 11:40:46;;;;;;;12.23;9.18;;;20.50;56.00;;;;;;4972354;28;20454;-61
2021/12/15 11:43:32;;;;;;;9.45;7.90;;;20.50;55.90;;;;;;4974201;28;20101;-61
2021/12/15 11:45:59;;;;;;;10.27;8.50;;;20.50;56.60;;;;;;4974706;28;20039;-62
2021/12/15 11:48:29;;;;;;;9.18;7.47;;;20.50;56.60;;;;;;4969691;28;20134;-61
2021/12/15 11:51:00;;;;;;;9.47;7.87;;;20.60;56.70;;;;;;4970519;28;20046;-61
2021/12/15 11:53:36;;;;;;;12.75;7.07;;;20.70;56.60;;;;;;4974629;28;20061;-61
2021/12/15 11:56:15;;;;;;;11.13;7.20;;;20.70;56.60;;;;;;4976929;28;20117;-61
2021/12/15 11:58:42;;;;;;;11.65;6.88;;;20.80;56.60;;;;;;4977805;28;20038;-61
2021/12/15 12:01:08;;;;;;;7.85;6.50;;;20.80;56.60;;;;;;4977013;28;20047;-61
2021/12/15 12:03:35;;;;;;;10.50;6.35;;;20.80;56.50;;;;;;4977342;28;20425;-62
2021/12/15 12:06:02;;;;;;;9.38;6.43;;;20.80;56.60;;;;;;4977311;28;20402;-62
2021/12/15 12:08:28;;;;;;;10.95;6.30;;;20.80;56.60;;;;;;4978074;28;20039;-62
2021/12/15 12:10:56;;;;;;;15.25;6.53;;;20.80;56.60;;;;;;4977640;28;20039;-62
2021/12/15 12:13:28;;;;;;;10.63;6.35;;;20.80;56.60;;;;;;4977995;28;20053;-62
2021/12/15 12:16:00;;;;;;;8.85;6.13;;;20.80;56.50;;;;;;4978199;28;20046;-61
2021/12/15 12:18:28;;;;;;;14.02;6.47;;;20.80;56.40;;;;;;4977805;28;20474;-61
2021/12/15 12:21:04;;;;;;;9.35;5.68;;;20.80;56.40;;;;;;4976397;28;20377;-62
2021/12/15 12:23:34;;;;;;;8.82;5.57;;;20.80;56.40;;;;;;4977443;28;20049;-62
2021/12/15 12:26:09;;;;;;;8.57;6.07;;;20.80;56.40;;;;;;4977337;28;20145;-62
2021/12/15 12:28:40;;;;;;;6.50;5.65;;;20.80;56.40;;;;;;4977541;28;20038;-62
2021/12/15 12:31:12;;;;;;;6.05;5.55;;;20.80;56.30;;;;;;4977791;28;20038;-61
2021/12/15 12:33:38;;;;;;;9.38;5.57;;;20.80;56.30;;;;;;4977166;28;20126;-61
2021/12/15 12:36:14;;;;;;;8.68;5.88;;;20.80;56.30;;;;;;4977149;28;20046;-62
2021/12/15 12:38:46;;;;;;;8.20;5.75;;;20.90;56.30;;;;;;4976835;28;20500;-61
2021/12/15 12:41:16;;;;;;;6.53;5.35;;;20.80;56.30;;;;;;4976686;28;20126;-61
2021/12/15 12:43:54;;;;;;;9.07;5.38;;;20.80;56.20;;;;;;4976923;28;20102;-61
2021/12/15 12:46:33;;;;;;;6.70;5.15;;;20.80;56.20;;;;;;4977015;28;20070;-62
2021/12/15 13:00:28;;;;;;;7.47;5.25;;;20.80;56.60;;;;;;4989840;28;20116;-62
2021/12/15 13:03:01;;;;;;;9.43;5.65;;;20.70;56.70;;;;;;4977997;28;20046;-60
2021/12/15 13:05:54;;;;;;;11.75;5.75;;;20.70;56.70;;;;;;4995096;28;20532;-62
2021/12/15 13:08:47;;;;;;;5.80;5.00;;;20.70;56.70;;;;;;4991260;28;20479;-61
2021/12/15 13:11:18;;;;;;;8.10;5.07;;;20.70;56.70;;;;;;4992350;28;20053;-62
2021/12/15 13:14:15;;;;;;;9.15;5.05;;;20.70;56.80;;;;;;4980475;28;20100;-62
2021/12/15 13:16:54;;;;;;;6.20;5.03;;;20.70;56.80;;;;;;4974451;28;20042;-62
2021/12/15 13:19:24;;;;;;;6.82;4.75;;;20.70;56.80;;;;;;4993005;28;20038;-61
2021/12/15 13:30:46;;;;;;;6.97;4.78;;;20.70;57.10;;;;;;4980094;28;20038;-61
2021/12/15 13:33:17;;;;;;;6.13;4.57;;;20.70;57.00;;;;;;4989830;28;20034;-61
2021/12/15 13:35:47;;;;;;;7.78;4.72;;;20.70;57.10;;;;;;4996229;28;20097;-62
2021/12/15 13:38:18;;;;;;;6.82;4.20;;;20.70;57.00;;;;;;4995457;28;20042;-61
2021/12/15 13:41:03;;;;;;;;;;;20.70;57.00;;;;;;4995869;28;20458;-62
2021/12/15 13:43:56;;;;;;;6.55;4.47;;;20.70;57.00;;;;;;4995877;28;19952;-61
2021/12/15 13:46:27;;;;;;;6.20;4.03;;;20.60;57.00;;;;;;4977527;28;20433;-61
2021/12/15 13:48:55;;;;;;;8.18;4.30;;;20.60;57.00;;;;;;4994094;28;20034;-62
2021/12/15 13:51:51;;;;;;;7.72;4.00;;;20.70;56.90;;;;;;4994003;28;20081;-61
2021/12/15 13:54:40;;;;;;;6.90;3.97;;;20.70;56.80;;;;;;4982063;28;20069;-61
2021/12/15 13:57:14;;;;;;;4.03;3.63;;;20.70;56.70;;;;;;4991742;28;20445;-61
2021/12/15 13:59:41;;;;;;;4.72;3.58;;;20.60;56.70;;;;;;4994938;28;20034;-61
2021/12/15 14:02:14;;;;;;;8.93;4.00;;;20.70;56.80;;;;;;4994403;28;20129;-61
2021/12/15 14:05:00;;;;;;;4.53;3.45;;;20.70;56.70;;;;;;4994883;28;20046;-60
2021/12/15 14:07:28;;;;;;;4.97;3.58;;;20.70;56.60;;;;;;4990442;28;20054;-61
2021/12/15 14:10:24;;;;;;;4.30;3.05;;;20.70;56.60;;;;;;4994711;28;20046;-61
2021/12/15 14:12:57;;;;;;;5.60;3.33;;;20.70;56.40;;;;;;4993631;28;20038;-62
2021/12/15 14:15:37;;;;;;;4.80;3.65;;;20.70;56.40;;;;;;4995248;28;20460;-61
2021/12/15 14:18:21;;;;;;;5.15;3.17;;;20.70;56.30;;;;;;4994980;28;20042;-61